sensor_id;sensor_type;location;lat;lon;timestamp;temperature;humidity
6102;DHT22;3081;50.584;7.032;2024-03-02T00:01:36;8.00;99.90
6102;DHT22;3081;50.584;7.032;2024-03-02T00:04:04;8.10;99.90
6102;DHT22;3081;50.584;7.032;2024-03-02T00:06:32;8.30;99.90
6102;DHT22;3081;50.584;7.032;2024-03-02T00:08:59;8.40;99.90
6102;DHT22;3081;50.584;7.032;2024-03-02T00:11:26;8.40;99.90
6102;DHT22;3081;50.584;7.032;2024-03-02T00:13:55;8.50;99.90
6102;DHT22;3081;50.584;7.032;2024-03-02T00:16:22;8.50;99.90
6102;DHT22;3081;50.584;7.032;2024-03-02T00:18:49;8.60;99.90
6102;DHT22;3081;50.584;7.032;2024-03-02T00:21:16;8.50;99.90
6102;DHT22;3081;50.584;7.032;2024-03-02T00:23:46;8.50;99.90
6102;DHT22;3081;50.584;7.032;2024-03-02T00:26:15;8.30;99.90
6102;DHT22;3081;50.584;7.032;2024-03-02T00:28:42;8.20;99.90
6102;DHT22;3081;50.584;7.032;2024-03-02T00:31:12;8.20;99.90
6102;DHT22;3081;50.584;7.032;2024-03-02T00:33:41;8.10;99.90
6102;DHT22;3081;50.584;7.032;2024-03-02T00:36:10;8.00;99.90
6102;DHT22;3081;50.584;7.032;2024-03-02T00:38:44;7.90;99.90
6102;DHT22;3081;50.584;7.032;2024-03-02T00:41:17;7.80;99.90
6102;DHT22;3081;50.584;7.032;2024-03-02T00:43:56;7.80;99.90
6102;DHT22;3081;50.584;7.032;2024-03-02T00:46:26;7.70;99.90
6102;DHT22;3081;50.584;7.032;2024-03-02T00:48:56;7.60;99.90
6102;DHT22;3081;50.584;7.032;2024-03-02T00:51:26;7.60;99.90
6102;DHT22;3081;50.584;7.032;2024-03-02T00:53:54;7.50;99.90
6102;DHT22;3081;50.584;7.032;2024-03-02T00:56:22;7.50;99.90
6102;DHT22;3081;50.584;7.032;2024-03-02T00:58:50;7.50;99.90
6102;DHT22;3081;50.584;7.032;2024-03-02T01:01:17;7.50;99.90
6102;DHT22;3081;50.584;7.032;2024-03-02T01:03:46;7.50;99.90
6102;DHT22;3081;50.584;7.032;2024-03-02T01:06:12;7.50;99.90
6102;DHT22;3081;50.584;7.032;2024-03-02T01:08:40;7.50;99.90
6102;DHT22;3081;50.584;7.032;2024-03-02T01:11:07;7.50;99.90
6102;DHT22;3081;50.584;7.032;2024-03-02T01:13:34;7.50;99.90
6102;DHT22;3081;50.584;7.032;2024-03-02T01:16:01;7.50;99.90
6102;DHT22;3081;50.584;7.032;2024-03-02T01:18:29;7.50;99.90
6102;DHT22;3081;50.584;7.032;2024-03-02T01:20:57;7.30;99.90
6102;DHT22;3081;50.584;7.032;2024-03-02T01:23:25;7.50;99.90
6102;DHT22;3081;50.584;7.032;2024-03-02T01:25:52;7.50;99.90
6102;DHT22;3081;50.584;7.032;2024-03-02T01:28:19;7.40;99.90
6102;DHT22;3081;50.584;7.032;2024-03-02T01:30:47;7.40;99.90
6102;DHT22;3081;50.584;7.032;2024-03-02T01:33:14;7.40;99.90
6102;DHT22;3081;50.584;7.032;2024-03-02T01:35:41;7.40;99.90
6102;DHT22;3081;50.584;7.032;2024-03-02T01:38:10;7.30;99.90
6102;DHT22;3081;50.584;7.032;2024-03-02T01:40:44;7.40;99.90
6102;DHT22;3081;50.584;7.032;2024-03-02T01:43:11;7.30;99.90
6102;DHT22;3081;50.584;7.032;2024-03-02T01:45:38;7.30;99.90
6102;DHT22;3081;50.584;7.032;2024-03-02T01:48:06;7.30;99.90
6102;DHT22;3081;50.584;7.032;2024-03-02T01:50:34;7.30;99.90
6102;DHT22;3081;50.584;7.032;2024-03-02T01:53:01;7.20;99.90
6102;DHT22;3081;50.584;7.032;2024-03-02T01:55:30;7.20;99.90
6102;DHT22;3081;50.584;7.032;2024-03-02T01:57:58;7.20;99.90
6102;DHT22;3081;50.584;7.032;2024-03-02T02:00:26;7.20;99.90
6102;DHT22;3081;50.584;7.032;2024-03-02T02:02:53;7.30;99.90
6102;DHT22;3081;50.584;7.032;2024-03-02T02:05:20;7.20;99.90
6102;DHT22;3081;50.584;7.032;2024-03-02T02:07:47;7.30;99.90
6102;DHT22;3081;50.584;7.032;2024-03-02T02:10:15;7.30;99.90
6102;DHT22;3081;50.584;7.032;2024-03-02T02:12:43;7.20;99.90
6102;DHT22;3081;50.584;7.032;2024-03-02T02:15:24;7.30;99.90
6102;DHT22;3081;50.584;7.032;2024-03-02T02:17:51;7.20;99.90
6102;DHT22;3081;50.584;7.032;2024-03-02T02:20:18;7.20;99.90
6102;DHT22;3081;50.584;7.032;2024-03-02T02:23:00;7.20;99.90
6102;DHT22;3081;50.584;7.032;2024-03-02T02:25:28;7.20;99.90
6102;DHT22;3081;50.584;7.032;2024-03-02T02:27:56;7.30;99.90
6102;DHT22;3081;50.584;7.032;2024-03-02T02:30:24;7.30;99.90
6102;DHT22;3081;50.584;7.032;2024-03-02T02:32:52;7.30;99.90
6102;DHT22;3081;50.584;7.032;2024-03-02T02:35:19;7.30;99.90
6102;DHT22;3081;50.584;7.032;2024-03-02T02:37:46;7.30;99.90
6102;DHT22;3081;50.584;7.032;2024-03-02T02:40:15;7.30;99.90
6102;DHT22;3081;50.584;7.032;2024-03-02T02:42:44;7.20;99.90
6102;DHT22;3081;50.584;7.032;2024-03-02T02:45:11;7.20;99.90
6102;DHT22;3081;50.584;7.032;2024-03-02T02:47:40;7.10;99.90
6102;DHT22;3081;50.584;7.032;2024-03-02T02:50:08;7.00;99.90
6102;DHT22;3081;50.584;7.032;2024-03-02T02:52:37;7.00;99.90
6102;DHT22;3081;50.584;7.032;2024-03-02T02:55:07;7.00;99.90
6102;DHT22;3081;50.584;7.032;2024-03-02T02:57:36;7.00;99.90
6102;DHT22;3081;50.584;7.032;2024-03-02T03:00:06;6.90;99.90
6102;DHT22;3081;50.584;7.032;2024-03-02T03:02:37;7.00;99.90
6102;DHT22;3081;50.584;7.032;2024-03-02T03:05:06;7.10;99.90
6102;DHT22;3081;50.584;7.032;2024-03-02T03:07:33;7.10;99.90
6102;DHT22;3081;50.584;7.032;2024-03-02T03:09:59;7.10;99.90
6102;DHT22;3081;50.584;7.032;2024-03-02T03:12:26;7.10;99.90
6102;DHT22;3081;50.584;7.032;2024-03-02T03:14:55;7.10;99.90
6102;DHT22;3081;50.584;7.032;2024-03-02T03:17:23;7.10;99.90
6102;DHT22;3081;50.584;7.032;2024-03-02T03:19:50;7.10;99.90
6102;DHT22;3081;50.584;7.032;2024-03-02T03:22:17;7.00;99.90
6102;DHT22;3081;50.584;7.032;2024-03-02T03:24:44;7.00;99.90
6102;DHT22;3081;50.584;7.032;2024-03-02T03:27:11;7.00;99.90
6102;DHT22;3081;50.584;7.032;2024-03-02T03:29:38;7.00;99.90
6102;DHT22;3081;50.584;7.032;2024-03-02T03:32:07;7.10;99.90
6102;DHT22;3081;50.584;7.032;2024-03-02T03:34:34;7.10;99.90
6102;DHT22;3081;50.584;7.032;2024-03-02T03:37:01;7.20;99.90
6102;DHT22;3081;50.584;7.032;2024-03-02T03:39:28;7.30;99.90
6102;DHT22;3081;50.584;7.032;2024-03-02T03:41:55;7.80;99.90
6102;DHT22;3081;50.584;7.032;2024-03-02T03:44:22;8.00;99.90
6102;DHT22;3081;50.584;7.032;2024-03-02T03:46:49;8.20;99.90
6102;DHT22;3081;50.584;7.032;2024-03-02T03:49:18;8.40;99.90
6102;DHT22;3081;50.584;7.032;2024-03-02T03:51:45;8.60;99.90
6102;DHT22;3081;50.584;7.032;2024-03-02T03:54:12;8.70;99.90
6102;DHT22;3081;50.584;7.032;2024-03-02T03:56:39;8.70;99.90
6102;DHT22;3081;50.584;7.032;2024-03-02T03:59:06;8.80;99.90
6102;DHT22;3081;50.584;7.032;2024-03-02T04:01:33;8.90;99.90
6102;DHT22;3081;50.584;7.032;2024-03-02T04:04:00;8.80;99.90
6102;DHT22;3081;50.584;7.032;2024-03-02T04:06:30;8.70;99.90
6102;DHT22;3081;50.584;7.032;2024-03-02T04:08:57;8.50;99.90
6102;DHT22;3081;50.584;7.032;2024-03-02T04:11:25;8.20;99.90
6102;DHT22;3081;50.584;7.032;2024-03-02T04:13:52;8.10;99.90
6102;DHT22;3081;50.584;7.032;2024-03-02T04:16:19;7.80;99.90
6102;DHT22;3081;50.584;7.032;2024-03-02T04:18:45;7.70;99.90
6102;DHT22;3081;50.584;7.032;2024-03-02T04:21:12;7.50;99.90
6102;DHT22;3081;50.584;7.032;2024-03-02T04:23:41;7.40;99.90
6102;DHT22;3081;50.584;7.032;2024-03-02T04:26:08;7.30;99.90
6102;DHT22;3081;50.584;7.032;2024-03-02T04:28:35;7.20;99.90
6102;DHT22;3081;50.584;7.032;2024-03-02T04:31:02;7.10;99.90
6102;DHT22;3081;50.584;7.032;2024-03-02T04:33:29;7.00;99.90
6102;DHT22;3081;50.584;7.032;2024-03-02T04:35:56;7.00;99.90
6102;DHT22;3081;50.584;7.032;2024-03-02T04:38:23;6.90;99.90
6102;DHT22;3081;50.584;7.032;2024-03-02T04:40:51;6.90;99.90
6102;DHT22;3081;50.584;7.032;2024-03-02T04:43:18;6.90;99.90
6102;DHT22;3081;50.584;7.032;2024-03-02T04:45:45;6.90;99.90
6102;DHT22;3081;50.584;7.032;2024-03-02T04:48:12;6.90;99.90
6102;DHT22;3081;50.584;7.032;2024-03-02T04:50:40;7.00;99.90
6102;DHT22;3081;50.584;7.032;2024-03-02T04:53:07;7.00;99.90
6102;DHT22;3081;50.584;7.032;2024-03-02T04:55:34;7.00;99.90
6102;DHT22;3081;50.584;7.032;2024-03-02T04:58:46;7.10;99.90
6102;DHT22;3081;50.584;7.032;2024-03-02T05:01:13;7.10;99.90
6102;DHT22;3081;50.584;7.032;2024-03-02T05:03:42;7.00;99.90
6102;DHT22;3081;50.584;7.032;2024-03-02T05:06:09;7.00;99.90
6102;DHT22;3081;50.584;7.032;2024-03-02T05:08:36;7.00;99.90
6102;DHT22;3081;50.584;7.032;2024-03-02T05:11:03;7.00;99.90
6102;DHT22;3081;50.584;7.032;2024-03-02T05:13:45;7.10;99.90
6102;DHT22;3081;50.584;7.032;2024-03-02T05:16:12;7.10;99.90
6102;DHT22;3081;50.584;7.032;2024-03-02T05:18:39;7.10;99.90
6102;DHT22;3081;50.584;7.032;2024-03-02T05:21:06;7.10;99.90
6102;DHT22;3081;50.584;7.032;2024-03-02T05:23:33;7.10;99.90
6102;DHT22;3081;50.584;7.032;2024-03-02T05:26:00;7.00;99.90
6102;DHT22;3081;50.584;7.032;2024-03-02T05:28:27;6.90;99.90
6102;DHT22;3081;50.584;7.032;2024-03-02T05:30:55;6.90;99.90
6102;DHT22;3081;50.584;7.032;2024-03-02T05:33:22;7.00;99.90
6102;DHT22;3081;50.584;7.032;2024-03-02T05:35:49;7.20;99.90
6102;DHT22;3081;50.584;7.032;2024-03-02T05:38:17;7.40;99.90
6102;DHT22;3081;50.584;7.032;2024-03-02T05:40:44;7.70;99.90
6102;DHT22;3081;50.584;7.032;2024-03-02T05:43:11;7.60;99.90
6102;DHT22;3081;50.584;7.032;2024-03-02T05:45:38;7.50;99.90
6102;DHT22;3081;50.584;7.032;2024-03-02T05:48:07;7.30;99.90
6102;DHT22;3081;50.584;7.032;2024-03-02T05:50:34;7.20;99.90
6102;DHT22;3081;50.584;7.032;2024-03-02T05:53:01;7.00;99.90
6102;DHT22;3081;50.584;7.032;2024-03-02T05:55:28;6.80;99.90
6102;DHT22;3081;50.584;7.032;2024-03-02T05:57:56;6.80;99.90
6102;DHT22;3081;50.584;7.032;2024-03-02T06:00:40;6.70;99.90
6102;DHT22;3081;50.584;7.032;2024-03-02T06:03:09;6.80;99.90
6102;DHT22;3081;50.584;7.032;2024-03-02T06:05:36;6.80;99.90
6102;DHT22;3081;50.584;7.032;2024-03-02T06:08:03;6.80;99.90
6102;DHT22;3081;50.584;7.032;2024-03-02T06:10:30;6.70;99.90
6102;DHT22;3081;50.584;7.032;2024-03-02T06:12:57;6.70;99.90
6102;DHT22;3081;50.584;7.032;2024-03-02T06:15:25;6.80;99.90
6102;DHT22;3081;50.584;7.032;2024-03-02T06:17:52;6.90;99.90
6102;DHT22;3081;50.584;7.032;2024-03-02T06:20:20;7.00;99.90
6102;DHT22;3081;50.584;7.032;2024-03-02T06:22:47;7.00;99.90
6102;DHT22;3081;50.584;7.032;2024-03-02T06:25:14;6.90;99.90
6102;DHT22;3081;50.584;7.032;2024-03-02T06:27:41;6.90;99.90
6102;DHT22;3081;50.584;7.032;2024-03-02T06:30:10;6.90;99.90
6102;DHT22;3081;50.584;7.032;2024-03-02T06:32:37;6.80;99.90
6102;DHT22;3081;50.584;7.032;2024-03-02T06:35:05;6.80;99.90
6102;DHT22;3081;50.584;7.032;2024-03-02T06:37:38;6.80;99.90
6102;DHT22;3081;50.584;7.032;2024-03-02T06:40:06;6.80;99.90
6102;DHT22;3081;50.584;7.032;2024-03-02T06:42:33;6.70;99.90
6102;DHT22;3081;50.584;7.032;2024-03-02T06:45:00;6.70;99.90
6102;DHT22;3081;50.584;7.032;2024-03-02T06:47:27;6.70;99.90
6102;DHT22;3081;50.584;7.032;2024-03-02T06:49:54;6.70;99.90
6102;DHT22;3081;50.584;7.032;2024-03-02T06:52:23;6.70;99.90
6102;DHT22;3081;50.584;7.032;2024-03-02T06:54:51;6.70;99.90
6102;DHT22;3081;50.584;7.032;2024-03-02T06:57:18;6.70;99.90
6102;DHT22;3081;50.584;7.032;2024-03-02T06:59:46;6.70;99.90
6102;DHT22;3081;50.584;7.032;2024-03-02T07:02:14;6.70;99.90
6102;DHT22;3081;50.584;7.032;2024-03-02T07:04:41;6.80;99.90
6102;DHT22;3081;50.584;7.032;2024-03-02T07:07:08;6.70;99.90
6102;DHT22;3081;50.584;7.032;2024-03-02T07:09:35;6.80;99.90
6102;DHT22;3081;50.584;7.032;2024-03-02T07:12:04;6.80;99.90
6102;DHT22;3081;50.584;7.032;2024-03-02T07:14:31;6.80;99.90
6102;DHT22;3081;50.584;7.032;2024-03-02T07:17:12;6.80;99.90
6102;DHT22;3081;50.584;7.032;2024-03-02T07:19:39;6.90;99.90
6102;DHT22;3081;50.584;7.032;2024-03-02T07:22:06;7.00;99.90
6102;DHT22;3081;50.584;7.032;2024-03-02T07:24:39;7.20;99.90
6102;DHT22;3081;50.584;7.032;2024-03-02T07:27:09;7.40;99.90
6102;DHT22;3081;50.584;7.032;2024-03-02T07:29:36;7.60;99.90
6102;DHT22;3081;50.584;7.032;2024-03-02T07:32:03;7.70;99.90
6102;DHT22;3081;50.584;7.032;2024-03-02T07:34:30;7.80;99.90
6102;DHT22;3081;50.584;7.032;2024-03-02T07:36:57;7.80;99.90
6102;DHT22;3081;50.584;7.032;2024-03-02T07:39:25;7.80;99.90
6102;DHT22;3081;50.584;7.032;2024-03-02T07:41:52;7.80;99.90
6102;DHT22;3081;50.584;7.032;2024-03-02T07:44:20;7.80;99.90
6102;DHT22;3081;50.584;7.032;2024-03-02T07:46:48;7.90;99.90
6102;DHT22;3081;50.584;7.032;2024-03-02T07:49:16;8.00;99.90
6102;DHT22;3081;50.584;7.032;2024-03-02T07:51:43;8.10;99.90
6102;DHT22;3081;50.584;7.032;2024-03-02T07:54:10;8.20;99.90
6102;DHT22;3081;50.584;7.032;2024-03-02T07:56:37;8.30;99.90
6102;DHT22;3081;50.584;7.032;2024-03-02T07:59:05;8.50;99.90
6102;DHT22;3081;50.584;7.032;2024-03-02T08:01:34;8.50;99.90
6102;DHT22;3081;50.584;7.032;2024-03-02T08:04:01;8.60;99.90
6102;DHT22;3081;50.584;7.032;2024-03-02T08:06:30;8.80;99.90
6102;DHT22;3081;50.584;7.032;2024-03-02T08:08:58;9.00;99.90
6102;DHT22;3081;50.584;7.032;2024-03-02T08:11:25;9.30;99.90
6102;DHT22;3081;50.584;7.032;2024-03-02T08:13:53;9.70;99.90
6102;DHT22;3081;50.584;7.032;2024-03-02T08:16:21;10.00;99.90
6102;DHT22;3081;50.584;7.032;2024-03-02T08:18:49;10.40;99.90
6102;DHT22;3081;50.584;7.032;2024-03-02T08:21:17;11.00;99.90
6102;DHT22;3081;50.584;7.032;2024-03-02T08:23:44;11.70;99.90
6102;DHT22;3081;50.584;7.032;2024-03-02T08:26:12;12.10;99.90
6102;DHT22;3081;50.584;7.032;2024-03-02T08:28:39;12.00;99.90
6102;DHT22;3081;50.584;7.032;2024-03-02T08:31:06;11.90;99.90
6102;DHT22;3081;50.584;7.032;2024-03-02T08:33:33;11.80;99.90
6102;DHT22;3081;50.584;7.032;2024-03-02T08:36:02;11.60;99.90
6102;DHT22;3081;50.584;7.032;2024-03-02T08:38:29;11.50;99.90
6102;DHT22;3081;50.584;7.032;2024-03-02T08:40:56;11.30;99.90
6102;DHT22;3081;50.584;7.032;2024-03-02T08:43:23;11.10;99.90
6102;DHT22;3081;50.584;7.032;2024-03-02T08:45:51;11.10;99.90
6102;DHT22;3081;50.584;7.032;2024-03-02T08:48:18;11.10;99.90
6102;DHT22;3081;50.584;7.032;2024-03-02T08:50:46;11.20;99.90
6102;DHT22;3081;50.584;7.032;2024-03-02T08:53:15;11.30;99.90
6102;DHT22;3081;50.584;7.032;2024-03-02T08:55:44;11.50;99.90
6102;DHT22;3081;50.584;7.032;2024-03-02T08:58:11;11.60;99.90
6102;DHT22;3081;50.584;7.032;2024-03-02T09:00:38;11.70;99.90
6102;DHT22;3081;50.584;7.032;2024-03-02T09:03:05;12.30;99.90
6102;DHT22;3081;50.584;7.032;2024-03-02T09:05:32;13.30;99.90
6102;DHT22;3081;50.584;7.032;2024-03-02T09:07:59;14.00;99.90
6102;DHT22;3081;50.584;7.032;2024-03-02T09:10:28;14.30;99.90
6102;DHT22;3081;50.584;7.032;2024-03-02T09:12:55;14.40;99.90
6102;DHT22;3081;50.584;7.032;2024-03-02T09:15:22;14.70;99.90
6102;DHT22;3081;50.584;7.032;2024-03-02T09:17:49;15.30;99.90
6102;DHT22;3081;50.584;7.032;2024-03-02T09:20:16;16.00;99.90
6102;DHT22;3081;50.584;7.032;2024-03-02T09:22:43;16.10;99.90
6102;DHT22;3081;50.584;7.032;2024-03-02T09:25:13;16.00;99.90
6102;DHT22;3081;50.584;7.032;2024-03-02T09:27:41;16.20;99.90
6102;DHT22;3081;50.584;7.032;2024-03-02T09:30:09;16.70;99.90
6102;DHT22;3081;50.584;7.032;2024-03-02T09:32:37;16.70;99.90
6102;DHT22;3081;50.584;7.032;2024-03-02T09:35:04;16.50;99.90
6102;DHT22;3081;50.584;7.032;2024-03-02T09:37:31;16.70;99.90
6102;DHT22;3081;50.584;7.032;2024-03-02T09:39:58;16.00;99.90
6102;DHT22;3081;50.584;7.032;2024-03-02T09:42:26;15.80;99.90
6102;DHT22;3081;50.584;7.032;2024-03-02T09:44:55;15.40;99.90
6102;DHT22;3081;50.584;7.032;2024-03-02T09:47:22;15.50;99.90
6102;DHT22;3081;50.584;7.032;2024-03-02T09:49:49;15.90;99.90
6102;DHT22;3081;50.584;7.032;2024-03-02T09:52:16;15.80;99.90
6102;DHT22;3081;50.584;7.032;2024-03-02T09:54:43;15.30;99.90
6102;DHT22;3081;50.584;7.032;2024-03-02T09:57:10;14.60;99.90
6102;DHT22;3081;50.584;7.032;2024-03-02T09:59:37;14.30;99.90
6102;DHT22;3081;50.584;7.032;2024-03-02T10:02:06;14.20;99.90
6102;DHT22;3081;50.584;7.032;2024-03-02T10:04:33;14.00;99.90
6102;DHT22;3081;50.584;7.032;2024-03-02T10:07:12;13.90;99.90
6102;DHT22;3081;50.584;7.032;2024-03-02T10:09:39;13.80;99.90
6102;DHT22;3081;50.584;7.032;2024-03-02T10:12:08;13.60;99.90
6102;DHT22;3081;50.584;7.032;2024-03-02T10:14:35;13.70;99.90
6102;DHT22;3081;50.584;7.032;2024-03-02T10:17:03;13.20;99.90
6102;DHT22;3081;50.584;7.032;2024-03-02T10:19:32;13.00;99.90
6102;DHT22;3081;50.584;7.032;2024-03-02T10:22:01;13.20;99.90
6102;DHT22;3081;50.584;7.032;2024-03-02T10:24:35;13.10;99.90
6102;DHT22;3081;50.584;7.032;2024-03-02T10:27:07;12.90;99.90
6102;DHT22;3081;50.584;7.032;2024-03-02T10:29:37;13.30;99.90
6102;DHT22;3081;50.584;7.032;2024-03-02T10:32:05;14.40;99.90
6102;DHT22;3081;50.584;7.032;2024-03-02T10:34:34;15.40;99.90
6102;DHT22;3081;50.584;7.032;2024-03-02T10:37:02;16.30;99.90
6102;DHT22;3081;50.584;7.032;2024-03-02T10:39:30;16.70;99.90
6102;DHT22;3081;50.584;7.032;2024-03-02T10:41:58;16.60;99.90
6102;DHT22;3081;50.584;7.032;2024-03-02T10:44:29;16.60;99.90
6102;DHT22;3081;50.584;7.032;2024-03-02T10:46:58;16.30;99.90
6102;DHT22;3081;50.584;7.032;2024-03-02T10:49:26;15.80;99.90
6102;DHT22;3081;50.584;7.032;2024-03-02T10:51:55;15.20;99.90
6102;DHT22;3081;50.584;7.032;2024-03-02T10:54:22;14.60;99.90
6102;DHT22;3081;50.584;7.032;2024-03-02T10:56:53;14.20;99.90
6102;DHT22;3081;50.584;7.032;2024-03-02T10:59:27;13.90;99.90
6102;DHT22;3081;50.584;7.032;2024-03-02T11:01:57;14.00;99.90
6102;DHT22;3081;50.584;7.032;2024-03-02T11:04:26;13.70;99.90
6102;DHT22;3081;50.584;7.032;2024-03-02T11:06:59;13.30;99.90
6102;DHT22;3081;50.584;7.032;2024-03-02T11:09:28;13.30;99.90
6102;DHT22;3081;50.584;7.032;2024-03-02T11:12:02;13.40;99.90
6102;DHT22;3081;50.584;7.032;2024-03-02T11:14:31;13.20;99.90
6102;DHT22;3081;50.584;7.032;2024-03-02T11:17:00;12.90;99.90
6102;DHT22;3081;50.584;7.032;2024-03-02T11:19:29;12.80;99.90
6102;DHT22;3081;50.584;7.032;2024-03-02T11:21:58;12.90;99.90
6102;DHT22;3081;50.584;7.032;2024-03-02T11:24:33;13.00;99.90
6102;DHT22;3081;50.584;7.032;2024-03-02T11:27:01;13.50;99.90
6102;DHT22;3081;50.584;7.032;2024-03-02T11:29:52;14.10;99.90
6102;DHT22;3081;50.584;7.032;2024-03-02T11:32:21;14.80;99.90
6102;DHT22;3081;50.584;7.032;2024-03-02T11:34:50;14.50;99.90
6102;DHT22;3081;50.584;7.032;2024-03-02T11:37:19;13.90;99.90
6102;DHT22;3081;50.584;7.032;2024-03-02T11:39:49;13.50;99.90
6102;DHT22;3081;50.584;7.032;2024-03-02T11:42:16;13.30;99.90
6102;DHT22;3081;50.584;7.032;2024-03-02T11:44:45;12.80;99.90
6102;DHT22;3081;50.584;7.032;2024-03-02T11:47:14;12.70;99.90
6102;DHT22;3081;50.584;7.032;2024-03-02T11:49:42;12.70;99.90
6102;DHT22;3081;50.584;7.032;2024-03-02T11:52:12;12.60;99.90
6102;DHT22;3081;50.584;7.032;2024-03-02T11:54:42;12.60;99.90
6102;DHT22;3081;50.584;7.032;2024-03-02T11:57:14;12.50;99.90
6102;DHT22;3081;50.584;7.032;2024-03-02T11:59:41;12.50;99.90
6102;DHT22;3081;50.584;7.032;2024-03-02T12:02:15;12.70;99.90
6102;DHT22;3081;50.584;7.032;2024-03-02T12:04:42;12.90;99.90
6102;DHT22;3081;50.584;7.032;2024-03-02T12:07:10;13.30;99.90
6102;DHT22;3081;50.584;7.032;2024-03-02T12:09:39;13.80;99.90
6102;DHT22;3081;50.584;7.032;2024-03-02T12:12:07;14.00;99.90
6102;DHT22;3081;50.584;7.032;2024-03-02T12:14:37;13.90;99.90
6102;DHT22;3081;50.584;7.032;2024-03-02T12:17:05;13.60;99.90
6102;DHT22;3081;50.584;7.032;2024-03-02T12:19:32;13.40;99.90
6102;DHT22;3081;50.584;7.032;2024-03-02T12:22:00;13.70;99.90
6102;DHT22;3081;50.584;7.032;2024-03-02T12:24:28;14.20;99.90
6102;DHT22;3081;50.584;7.032;2024-03-02T12:26:57;14.30;99.90
6102;DHT22;3081;50.584;7.032;2024-03-02T12:29:24;14.50;99.90
6102;DHT22;3081;50.584;7.032;2024-03-02T12:31:52;15.00;99.90
6102;DHT22;3081;50.584;7.032;2024-03-02T12:34:20;15.30;99.90
6102;DHT22;3081;50.584;7.032;2024-03-02T12:36:47;15.80;99.90
6102;DHT22;3081;50.584;7.032;2024-03-02T12:39:16;16.80;99.90
6102;DHT22;3081;50.584;7.032;2024-03-02T12:41:43;18.20;99.90
6102;DHT22;3081;50.584;7.032;2024-03-02T12:44:11;18.80;99.90
6102;DHT22;3081;50.584;7.032;2024-03-02T12:46:39;18.20;99.90
6102;DHT22;3081;50.584;7.032;2024-03-02T12:49:08;18.10;99.90
6102;DHT22;3081;50.584;7.032;2024-03-02T12:51:36;17.50;99.90
6102;DHT22;3081;50.584;7.032;2024-03-02T12:54:04;17.00;99.90
6102;DHT22;3081;50.584;7.032;2024-03-02T12:56:31;16.00;99.90
6102;DHT22;3081;50.584;7.032;2024-03-02T12:58:59;15.70;99.90
6102;DHT22;3081;50.584;7.032;2024-03-02T13:01:28;15.80;99.90
6102;DHT22;3081;50.584;7.032;2024-03-02T13:03:55;15.90;99.90
6102;DHT22;3081;50.584;7.032;2024-03-02T13:06:23;16.20;99.90
6102;DHT22;3081;50.584;7.032;2024-03-02T13:08:53;16.30;99.90
6102;DHT22;3081;50.584;7.032;2024-03-02T13:11:21;16.60;99.90
6102;DHT22;3081;50.584;7.032;2024-03-02T13:13:49;16.60;99.90
6102;DHT22;3081;50.584;7.032;2024-03-02T13:16:16;16.10;99.90
6102;DHT22;3081;50.584;7.032;2024-03-02T13:18:47;15.80;99.90
6102;DHT22;3081;50.584;7.032;2024-03-02T13:21:14;15.40;99.90
6102;DHT22;3081;50.584;7.032;2024-03-02T13:23:41;15.00;99.90
6102;DHT22;3081;50.584;7.032;2024-03-02T13:26:08;15.20;99.90
6102;DHT22;3081;50.584;7.032;2024-03-02T13:28:36;15.30;99.90
6102;DHT22;3081;50.584;7.032;2024-03-02T13:31:04;15.50;99.90
6102;DHT22;3081;50.584;7.032;2024-03-02T13:33:33;15.90;99.90
6102;DHT22;3081;50.584;7.032;2024-03-02T13:36:02;16.80;99.90
6102;DHT22;3081;50.584;7.032;2024-03-02T13:38:29;17.60;99.90
6102;DHT22;3081;50.584;7.032;2024-03-02T13:40:56;18.10;99.90
6102;DHT22;3081;50.584;7.032;2024-03-02T13:43:24;18.80;99.90
6102;DHT22;3081;50.584;7.032;2024-03-02T13:45:51;19.40;99.90
6102;DHT22;3081;50.584;7.032;2024-03-02T13:48:19;20.30;99.90
6102;DHT22;3081;50.584;7.032;2024-03-02T13:50:45;20.00;99.90
6102;DHT22;3081;50.584;7.032;2024-03-02T13:53:13;19.70;99.90
6102;DHT22;3081;50.584;7.032;2024-03-02T13:55:40;18.70;99.90
6102;DHT22;3081;50.584;7.032;2024-03-02T13:58:09;18.40;99.90
6102;DHT22;3081;50.584;7.032;2024-03-02T14:00:37;18.00;99.90
6102;DHT22;3081;50.584;7.032;2024-03-02T14:03:05;17.30;99.90
6102;DHT22;3081;50.584;7.032;2024-03-02T14:05:33;16.70;99.90
6102;DHT22;3081;50.584;7.032;2024-03-02T14:08:00;16.10;99.90
6102;DHT22;3081;50.584;7.032;2024-03-02T14:10:31;15.60;99.90
6102;DHT22;3081;50.584;7.032;2024-03-02T14:12:58;15.30;99.90
6102;DHT22;3081;50.584;7.032;2024-03-02T14:15:25;15.20;99.90
6102;DHT22;3081;50.584;7.032;2024-03-02T14:17:52;14.80;99.90
6102;DHT22;3081;50.584;7.032;2024-03-02T14:20:18;14.30;99.90
6102;DHT22;3081;50.584;7.032;2024-03-02T14:22:48;14.10;99.90
6102;DHT22;3081;50.584;7.032;2024-03-02T14:25:15;14.00;99.90
6102;DHT22;3081;50.584;7.032;2024-03-02T14:27:45;14.00;99.90
6102;DHT22;3081;50.584;7.032;2024-03-02T14:30:13;13.90;99.90
6102;DHT22;3081;50.584;7.032;2024-03-02T14:32:40;14.10;99.90
6102;DHT22;3081;50.584;7.032;2024-03-02T14:35:07;13.90;99.90
6102;DHT22;3081;50.584;7.032;2024-03-02T14:37:37;13.80;99.90
6102;DHT22;3081;50.584;7.032;2024-03-02T14:40:05;13.90;99.90
6102;DHT22;3081;50.584;7.032;2024-03-02T14:42:35;13.90;99.90
6102;DHT22;3081;50.584;7.032;2024-03-02T14:45:04;13.90;99.90
6102;DHT22;3081;50.584;7.032;2024-03-02T14:47:32;14.00;99.90
6102;DHT22;3081;50.584;7.032;2024-03-02T14:50:01;14.20;99.90
6102;DHT22;3081;50.584;7.032;2024-03-02T14:52:31;14.40;99.90
6102;DHT22;3081;50.584;7.032;2024-03-02T14:54:58;14.50;99.90
6102;DHT22;3081;50.584;7.032;2024-03-02T14:57:25;14.50;99.90
6102;DHT22;3081;50.584;7.032;2024-03-02T14:59:52;14.60;99.90
6102;DHT22;3081;50.584;7.032;2024-03-02T15:02:21;14.60;99.90
6102;DHT22;3081;50.584;7.032;2024-03-02T15:04:48;14.80;99.90
6102;DHT22;3081;50.584;7.032;2024-03-02T15:07:16;14.90;99.90
6102;DHT22;3081;50.584;7.032;2024-03-02T15:09:43;14.60;99.90
6102;DHT22;3081;50.584;7.032;2024-03-02T15:12:10;14.60;99.90
6102;DHT22;3081;50.584;7.032;2024-03-02T15:14:40;14.50;99.90
6102;DHT22;3081;50.584;7.032;2024-03-02T15:17:12;14.80;99.90
6102;DHT22;3081;50.584;7.032;2024-03-02T15:19:42;15.30;99.90
6102;DHT22;3081;50.584;7.032;2024-03-02T15:22:09;15.20;99.90
6102;DHT22;3081;50.584;7.032;2024-03-02T15:24:37;15.00;99.90
6102;DHT22;3081;50.584;7.032;2024-03-02T15:27:04;14.80;99.90
6102;DHT22;3081;50.584;7.032;2024-03-02T15:29:34;14.70;99.90
6102;DHT22;3081;50.584;7.032;2024-03-02T15:32:01;14.70;99.90
6102;DHT22;3081;50.584;7.032;2024-03-02T15:34:31;14.40;99.90
6102;DHT22;3081;50.584;7.032;2024-03-02T15:37:00;13.90;99.90
6102;DHT22;3081;50.584;7.032;2024-03-02T15:39:27;13.60;99.90
6102;DHT22;3081;50.584;7.032;2024-03-02T15:41:54;13.40;99.90
6102;DHT22;3081;50.584;7.032;2024-03-02T15:44:21;13.30;99.90
6102;DHT22;3081;50.584;7.032;2024-03-02T15:46:48;13.30;99.90
6102;DHT22;3081;50.584;7.032;2024-03-02T15:49:15;13.30;99.90
6102;DHT22;3081;50.584;7.032;2024-03-02T15:51:42;13.20;99.90
6102;DHT22;3081;50.584;7.032;2024-03-02T15:54:11;13.30;99.90
6102;DHT22;3081;50.584;7.032;2024-03-02T15:56:38;13.30;99.90
6102;DHT22;3081;50.584;7.032;2024-03-02T15:59:05;13.40;99.90
6102;DHT22;3081;50.584;7.032;2024-03-02T16:01:32;13.30;99.90
6102;DHT22;3081;50.584;7.032;2024-03-02T16:04:00;13.40;99.90
6102;DHT22;3081;50.584;7.032;2024-03-02T16:06:26;13.40;99.90
6102;DHT22;3081;50.584;7.032;2024-03-02T16:08:53;13.40;99.90
6102;DHT22;3081;50.584;7.032;2024-03-02T16:11:24;13.30;99.90
6102;DHT22;3081;50.584;7.032;2024-03-02T16:13:51;13.20;99.90
6102;DHT22;3081;50.584;7.032;2024-03-02T16:16:18;13.20;99.90